sensor_id;sensor_type;location;lat;lon;timestamp;P1;durP1;ratioP1;P2;durP2;ratioP2
21697;SDS011;11010;49.548;11.926;2022-09-16T00:00:51;8.13;;;2.83;;
21697;SDS011;11010;49.548;11.926;2022-09-16T00:03:19;8.60;;;2.93;;
21697;SDS011;11010;49.548;11.926;2022-09-16T00:05:48;7.30;;;2.90;;
21697;SDS011;11010;49.548;11.926;2022-09-16T00:08:17;7.73;;;2.80;;
21697;SDS011;11010;49.548;11.926;2022-09-16T00:10:45;7.93;;;2.70;;
21697;SDS011;11010;49.548;11.926;2022-09-16T00:13:13;11.03;;;2.97;;
21697;SDS011;11010;49.548;11.926;2022-09-16T00:15:45;8.07;;;2.70;;
21697;SDS011;11010;49.548;11.926;2022-09-16T00:18:14;8.23;;;3.07;;
21697;SDS011;11010;49.548;11.926;2022-09-16T00:20:46;10.47;;;2.70;;
21697;SDS011;11010;49.548;11.926;2022-09-16T00:23:15;9.20;;;3.20;;
21697;SDS011;11010;49.548;11.926;2022-09-16T00:25:43;8.47;;;3.00;;
21697;SDS011;11010;49.548;11.926;2022-09-16T00:28:11;10.07;;;2.97;;
21697;SDS011;11010;49.548;11.926;2022-09-16T00:30:39;8.07;;;3.00;;
21697;SDS011;11010;49.548;11.926;2022-09-16T00:33:07;8.70;;;3.00;;
21697;SDS011;11010;49.548;11.926;2022-09-16T00:35:35;8.97;;;3.03;;
21697;SDS011;11010;49.548;11.926;2022-09-16T00:38:03;10.00;;;3.20;;
21697;SDS011;11010;49.548;11.926;2022-09-16T00:40:31;9.93;;;3.00;;
21697;SDS011;11010;49.548;11.926;2022-09-16T00:42:59;9.00;;;3.15;;
21697;SDS011;11010;49.548;11.926;2022-09-16T00:45:27;9.40;;;3.10;;
21697;SDS011;11010;49.548;11.926;2022-09-16T00:47:58;9.53;;;2.97;;
21697;SDS011;11010;49.548;11.926;2022-09-16T00:50:42;8.90;;;2.80;;
21697;SDS011;11010;49.548;11.926;2022-09-16T00:53:33;8.60;;;3.10;;
21697;SDS011;11010;49.548;11.926;2022-09-16T00:56:08;11.53;;;3.50;;
21697;SDS011;11010;49.548;11.926;2022-09-16T00:58:43;8.53;;;3.33;;
21697;SDS011;11010;49.548;11.926;2022-09-16T01:01:12;7.93;;;3.07;;
21697;SDS011;11010;49.548;11.926;2022-09-16T01:03:44;9.70;;;3.30;;
21697;SDS011;11010;49.548;11.926;2022-09-16T01:06:13;8.93;;;3.20;;
21697;SDS011;11010;49.548;11.926;2022-09-16T01:08:42;9.53;;;3.43;;
21697;SDS011;11010;49.548;11.926;2022-09-16T01:11:10;9.00;;;3.20;;
21697;SDS011;11010;49.548;11.926;2022-09-16T01:13:38;9.77;;;3.27;;
21697;SDS011;11010;49.548;11.926;2022-09-16T01:16:13;8.77;;;3.40;;
21697;SDS011;11010;49.548;11.926;2022-09-16T01:42:24;7.93;;;2.77;;
21697;SDS011;11010;49.548;11.926;2022-09-16T01:45:04;8.70;;;3.47;;
21697;SDS011;11010;49.548;11.926;2022-09-16T01:52:55;10.10;;;3.33;;
21697;SDS011;11010;49.548;11.926;2022-09-16T01:58:03;11.23;;;3.90;;
21697;SDS011;11010;49.548;11.926;2022-09-16T02:00:33;8.50;;;3.27;;
21697;SDS011;11010;49.548;11.926;2022-09-16T02:03:02;10.03;;;3.90;;
21697;SDS011;11010;49.548;11.926;2022-09-16T02:08:01;9.53;;;3.40;;
21697;SDS011;11010;49.548;11.926;2022-09-16T02:10:35;9.23;;;3.63;;
21697;SDS011;11010;49.548;11.926;2022-09-16T02:13:10;10.43;;;3.70;;
21697;SDS011;11010;49.548;11.926;2022-09-16T02:15:39;8.60;;;2.95;;
21697;SDS011;11010;49.548;11.926;2022-09-16T02:18:09;9.82;;;3.38;;
21697;SDS011;11010;49.548;11.926;2022-09-16T02:20:56;8.43;;;3.30;;
21697;SDS011;11010;49.548;11.926;2022-09-16T02:23:28;10.50;;;3.53;;
21697;SDS011;11010;49.548;11.926;2022-09-16T02:25:59;10.70;;;3.30;;
21697;SDS011;11010;49.548;11.926;2022-09-16T02:28:32;9.90;;;3.73;;
21697;SDS011;11010;49.548;11.926;2022-09-16T02:31:04;10.00;;;3.57;;
21697;SDS011;11010;49.548;11.926;2022-09-16T02:33:34;11.57;;;3.60;;
21697;SDS011;11010;49.548;11.926;2022-09-16T02:36:03;9.83;;;3.60;;
21697;SDS011;11010;49.548;11.926;2022-09-16T02:38:34;9.20;;;3.90;;
21697;SDS011;11010;49.548;11.926;2022-09-16T02:41:04;10.67;;;3.80;;
21697;SDS011;11010;49.548;11.926;2022-09-16T02:43:32;11.60;;;3.70;;
21697;SDS011;11010;49.548;11.926;2022-09-16T02:56:59;10.03;;;3.83;;
21697;SDS011;11010;49.548;11.926;2022-09-16T02:59:27;9.63;;;3.77;;
21697;SDS011;11010;49.548;11.926;2022-09-16T03:01:55;9.20;;;3.70;;
21697;SDS011;11010;49.548;11.926;2022-09-16T03:04:23;8.70;;;3.57;;
21697;SDS011;11010;49.548;11.926;2022-09-16T03:06:51;11.07;;;3.93;;
21697;SDS011;11010;49.548;11.926;2022-09-16T03:09:18;10.17;;;4.30;;
21697;SDS011;11010;49.548;11.926;2022-09-16T03:12:03;10.53;;;4.40;;
21697;SDS011;11010;49.548;11.926;2022-09-16T03:17:14;10.57;;;4.10;;
21697;SDS011;11010;49.548;11.926;2022-09-16T03:22:31;10.33;;;3.70;;
21697;SDS011;11010;49.548;11.926;2022-09-16T03:25:27;10.70;;;3.77;;
21697;SDS011;11010;49.548;11.926;2022-09-16T03:30:37;10.37;;;4.00;;
21697;SDS011;11010;49.548;11.926;2022-09-16T03:33:09;9.60;;;3.93;;
21697;SDS011;11010;49.548;11.926;2022-09-16T03:35:44;14.53;;;4.30;;
21697;SDS011;11010;49.548;11.926;2022-09-16T03:38:14;11.13;;;3.87;;
21697;SDS011;11010;49.548;11.926;2022-09-16T03:40:43;9.83;;;3.80;;
21697;SDS011;11010;49.548;11.926;2022-09-16T03:43:11;9.87;;;4.07;;
21697;SDS011;11010;49.548;11.926;2022-09-16T03:45:41;11.97;;;4.40;;
21697;SDS011;11010;49.548;11.926;2022-09-16T03:48:09;12.97;;;4.27;;
21697;SDS011;11010;49.548;11.926;2022-09-16T03:50:38;10.10;;;4.20;;
21697;SDS011;11010;49.548;11.926;2022-09-16T03:53:05;10.10;;;3.80;;
21697;SDS011;11010;49.548;11.926;2022-09-16T03:55:34;10.03;;;4.00;;
21697;SDS011;11010;49.548;11.926;2022-09-16T03:58:02;10.43;;;3.93;;
21697;SDS011;11010;49.548;11.926;2022-09-16T04:00:30;10.93;;;4.00;;
21697;SDS011;11010;49.548;11.926;2022-09-16T04:02:59;10.30;;;4.00;;
21697;SDS011;11010;49.548;11.926;2022-09-16T04:05:27;10.57;;;3.60;;
21697;SDS011;11010;49.548;11.926;2022-09-16T04:07:55;11.50;;;3.73;;
21697;SDS011;11010;49.548;11.926;2022-09-16T04:10:23;10.37;;;3.97;;
21697;SDS011;11010;49.548;11.926;2022-09-16T04:12:54;10.83;;;4.23;;
21697;SDS011;11010;49.548;11.926;2022-09-16T04:15:23;10.90;;;4.13;;
21697;SDS011;11010;49.548;11.926;2022-09-16T04:17:51;11.57;;;4.10;;
21697;SDS011;11010;49.548;11.926;2022-09-16T04:20:19;10.57;;;3.87;;
21697;SDS011;11010;49.548;11.926;2022-09-16T04:22:47;9.27;;;3.57;;
21697;SDS011;11010;49.548;11.926;2022-09-16T04:25:15;9.97;;;4.13;;
21697;SDS011;11010;49.548;11.926;2022-09-16T04:27:43;9.53;;;4.00;;
21697;SDS011;11010;49.548;11.926;2022-09-16T04:30:11;10.43;;;3.90;;
21697;SDS011;11010;49.548;11.926;2022-09-16T04:32:40;9.90;;;3.80;;
21697;SDS011;11010;49.548;11.926;2022-09-16T04:35:08;9.87;;;3.93;;
21697;SDS011;11010;49.548;11.926;2022-09-16T04:37:36;10.47;;;3.73;;
21697;SDS011;11010;49.548;11.926;2022-09-16T04:40:04;10.00;;;3.47;;
21697;SDS011;11010;49.548;11.926;2022-09-16T04:42:32;11.00;;;4.03;;
21697;SDS011;11010;49.548;11.926;2022-09-16T04:45:00;13.33;;;4.77;;
21697;SDS011;11010;49.548;11.926;2022-09-16T04:47:28;8.97;;;3.40;;
21697;SDS011;11010;49.548;11.926;2022-09-16T04:49:56;11.50;;;3.83;;
21697;SDS011;11010;49.548;11.926;2022-09-16T04:52:24;9.60;;;3.93;;
21697;SDS011;11010;49.548;11.926;2022-09-16T04:54:52;9.33;;;3.97;;
21697;SDS011;11010;49.548;11.926;2022-09-16T04:57:23;10.50;;;4.47;;
21697;SDS011;11010;49.548;11.926;2022-09-16T04:59:51;10.77;;;3.80;;
21697;SDS011;11010;49.548;11.926;2022-09-16T05:02:19;10.20;;;3.90;;
21697;SDS011;11010;49.548;11.926;2022-09-16T05:04:47;10.17;;;3.97;;
21697;SDS011;11010;49.548;11.926;2022-09-16T05:07:15;10.90;;;4.00;;
21697;SDS011;11010;49.548;11.926;2022-09-16T05:09:43;11.23;;;3.63;;
21697;SDS011;11010;49.548;11.926;2022-09-16T05:12:12;10.87;;;3.93;;
21697;SDS011;11010;49.548;11.926;2022-09-16T05:14:40;11.43;;;4.03;;
21697;SDS011;11010;49.548;11.926;2022-09-16T05:17:07;10.80;;;3.90;;
21697;SDS011;11010;49.548;11.926;2022-09-16T05:19:35;10.80;;;4.07;;
21697;SDS011;11010;49.548;11.926;2022-09-16T05:22:03;10.97;;;4.47;;
21697;SDS011;11010;49.548;11.926;2022-09-16T05:24:33;10.13;;;4.17;;
21697;SDS011;11010;49.548;11.926;2022-09-16T05:27:02;10.10;;;3.80;;
21697;SDS011;11010;49.548;11.926;2022-09-16T05:29:30;9.67;;;4.03;;
21697;SDS011;11010;49.548;11.926;2022-09-16T05:31:58;10.30;;;4.13;;
21697;SDS011;11010;49.548;11.926;2022-09-16T05:34:26;10.00;;;3.73;;
21697;SDS011;11010;49.548;11.926;2022-09-16T05:36:54;10.10;;;3.90;;
21697;SDS011;11010;49.548;11.926;2022-09-16T05:39:23;9.70;;;4.20;;
21697;SDS011;11010;49.548;11.926;2022-09-16T05:41:56;11.17;;;3.90;;
21697;SDS011;11010;49.548;11.926;2022-09-16T05:44:24;11.13;;;4.10;;
21697;SDS011;11010;49.548;11.926;2022-09-16T05:46:53;10.63;;;3.77;;
21697;SDS011;11010;49.548;11.926;2022-09-16T05:49:21;11.00;;;4.20;;
21697;SDS011;11010;49.548;11.926;2022-09-16T05:51:49;9.27;;;3.80;;
21697;SDS011;11010;49.548;11.926;2022-09-16T05:54:18;10.90;;;3.77;;
21697;SDS011;11010;49.548;11.926;2022-09-16T05:56:46;12.10;;;4.23;;
21697;SDS011;11010;49.548;11.926;2022-09-16T05:59:15;11.10;;;3.80;;
21697;SDS011;11010;49.548;11.926;2022-09-16T06:01:43;9.47;;;3.77;;
21697;SDS011;11010;49.548;11.926;2022-09-16T06:04:12;10.20;;;3.67;;
21697;SDS011;11010;49.548;11.926;2022-09-16T06:06:41;9.13;;;3.47;;
21697;SDS011;11010;49.548;11.926;2022-09-16T06:11:41;10.43;;;3.67;;
21697;SDS011;11010;49.548;11.926;2022-09-16T06:14:09;9.77;;;3.70;;
21697;SDS011;11010;49.548;11.926;2022-09-16T06:16:38;10.63;;;3.73;;
21697;SDS011;11010;49.548;11.926;2022-09-16T06:19:07;9.13;;;3.53;;
21697;SDS011;11010;49.548;11.926;2022-09-16T06:21:36;11.20;;;3.40;;
21697;SDS011;11010;49.548;11.926;2022-09-16T06:24:05;10.93;;;3.70;;
21697;SDS011;11010;49.548;11.926;2022-09-16T06:26:35;11.40;;;4.03;;
21697;SDS011;11010;49.548;11.926;2022-09-16T06:29:04;10.93;;;3.87;;
21697;SDS011;11010;49.548;11.926;2022-09-16T06:31:32;9.83;;;3.50;;
21697;SDS011;11010;49.548;11.926;2022-09-16T06:34:02;9.50;;;3.13;;
21697;SDS011;11010;49.548;11.926;2022-09-16T06:36:32;10.47;;;3.37;;
21697;SDS011;11010;49.548;11.926;2022-09-16T06:39:00;10.33;;;3.13;;
21697;SDS011;11010;49.548;11.926;2022-09-16T06:41:29;9.03;;;3.20;;
21697;SDS011;11010;49.548;11.926;2022-09-16T06:43:59;11.73;;;3.43;;
21697;SDS011;11010;49.548;11.926;2022-09-16T06:46:27;10.17;;;3.43;;
21697;SDS011;11010;49.548;11.926;2022-09-16T06:48:56;9.40;;;3.40;;
21697;SDS011;11010;49.548;11.926;2022-09-16T06:51:31;9.77;;;3.20;;
21697;SDS011;11010;49.548;11.926;2022-09-16T06:54:00;8.40;;;3.40;;
21697;SDS011;11010;49.548;11.926;2022-09-16T06:56:28;11.60;;;3.27;;
21697;SDS011;11010;49.548;11.926;2022-09-16T06:58:56;9.17;;;3.00;;
21697;SDS011;11010;49.548;11.926;2022-09-16T07:01:26;9.90;;;3.10;;
21697;SDS011;11010;49.548;11.926;2022-09-16T07:03:54;10.57;;;3.40;;
21697;SDS011;11010;49.548;11.926;2022-09-16T07:06:23;9.57;;;3.40;;
21697;SDS011;11010;49.548;11.926;2022-09-16T07:09:11;8.40;;;3.23;;
21697;SDS011;11010;49.548;11.926;2022-09-16T07:11:40;10.87;;;3.37;;
21697;SDS011;11010;49.548;11.926;2022-09-16T07:14:08;9.07;;;2.90;;
21697;SDS011;11010;49.548;11.926;2022-09-16T07:16:36;9.53;;;2.80;;
21697;SDS011;11010;49.548;11.926;2022-09-16T07:19:04;10.17;;;2.83;;
21697;SDS011;11010;49.548;11.926;2022-09-16T07:21:32;8.47;;;2.73;;
21697;SDS011;11010;49.548;11.926;2022-09-16T07:24:01;9.57;;;2.60;;
21697;SDS011;11010;49.548;11.926;2022-09-16T07:26:30;9.23;;;2.83;;
21697;SDS011;11010;49.548;11.926;2022-09-16T07:28:59;9.43;;;3.00;;
21697;SDS011;11010;49.548;11.926;2022-09-16T07:31:29;8.93;;;3.00;;
21697;SDS011;11010;49.548;11.926;2022-09-16T07:33:58;8.77;;;2.60;;
21697;SDS011;11010;49.548;11.926;2022-09-16T07:36:34;8.10;;;2.50;;
21697;SDS011;11010;49.548;11.926;2022-09-16T07:39:03;10.93;;;3.27;;
21697;SDS011;11010;49.548;11.926;2022-09-16T07:41:32;10.70;;;3.37;;
21697;SDS011;11010;49.548;11.926;2022-09-16T07:44:01;7.60;;;2.80;;
21697;SDS011;11010;49.548;11.926;2022-09-16T07:46:30;8.73;;;2.83;;
21697;SDS011;11010;49.548;11.926;2022-09-16T07:48:59;6.13;;;2.30;;
21697;SDS011;11010;49.548;11.926;2022-09-16T07:51:28;10.60;;;3.10;;
21697;SDS011;11010;49.548;11.926;2022-09-16T07:53:58;8.00;;;2.67;;
21697;SDS011;11010;49.548;11.926;2022-09-16T07:56:27;9.63;;;2.97;;
21697;SDS011;11010;49.548;11.926;2022-09-16T07:58:56;9.23;;;3.00;;
21697;SDS011;11010;49.548;11.926;2022-09-16T08:01:24;10.17;;;3.10;;
21697;SDS011;11010;49.548;11.926;2022-09-16T08:03:52;9.77;;;2.67;;
21697;SDS011;11010;49.548;11.926;2022-09-16T08:06:22;8.47;;;2.43;;
21697;SDS011;11010;49.548;11.926;2022-09-16T08:08:50;9.47;;;2.77;;
21697;SDS011;11010;49.548;11.926;2022-09-16T08:11:19;8.40;;;2.53;;
21697;SDS011;11010;49.548;11.926;2022-09-16T08:13:48;8.80;;;2.53;;
21697;SDS011;11010;49.548;11.926;2022-09-16T08:16:16;8.77;;;2.50;;
21697;SDS011;11010;49.548;11.926;2022-09-16T08:18:45;8.00;;;2.20;;
21697;SDS011;11010;49.548;11.926;2022-09-16T08:21:18;7.77;;;2.40;;
21697;SDS011;11010;49.548;11.926;2022-09-16T08:23:46;8.33;;;2.37;;
21697;SDS011;11010;49.548;11.926;2022-09-16T08:26:15;7.70;;;2.30;;
21697;SDS011;11010;49.548;11.926;2022-09-16T08:28:44;7.17;;;2.07;;
21697;SDS011;11010;49.548;11.926;2022-09-16T08:31:33;6.30;;;1.90;;
21697;SDS011;11010;49.548;11.926;2022-09-16T08:34:01;8.07;;;1.90;;
21697;SDS011;11010;49.548;11.926;2022-09-16T08:36:29;7.37;;;2.10;;
21697;SDS011;11010;49.548;11.926;2022-09-16T08:38:59;8.17;;;1.90;;
21697;SDS011;11010;49.548;11.926;2022-09-16T08:46:49;8.40;;;2.07;;
21697;SDS011;11010;49.548;11.926;2022-09-16T08:51:58;8.27;;;2.00;;
21697;SDS011;11010;49.548;11.926;2022-09-16T08:54:31;6.13;;;1.60;;
21697;SDS011;11010;49.548;11.926;2022-09-16T08:57:02;6.80;;;1.97;;
21697;SDS011;11010;49.548;11.926;2022-09-16T08:59:33;5.80;;;1.30;;
21697;SDS011;11010;49.548;11.926;2022-09-16T09:04:39;8.07;;;1.70;;
21697;SDS011;11010;49.548;11.926;2022-09-16T09:07:11;6.83;;;2.33;;
21697;SDS011;11010;49.548;11.926;2022-09-16T09:20:34;7.03;;;1.83;;
21697;SDS011;11010;49.548;11.926;2022-09-16T09:23:08;6.30;;;1.70;;
21697;SDS011;11010;49.548;11.926;2022-09-16T09:30:53;6.17;;;1.73;;
21697;SDS011;11010;49.548;11.926;2022-09-16T09:36:16;6.50;;;1.63;;
21697;SDS011;11010;49.548;11.926;2022-09-16T09:41:41;6.60;;;1.60;;
21697;SDS011;11010;49.548;11.926;2022-09-16T09:46:58;6.70;;;1.70;;
21697;SDS011;11010;49.548;11.926;2022-09-16T09:49:30;6.80;;;1.50;;
21697;SDS011;11010;49.548;11.926;2022-09-16T09:54:34;5.80;;;1.47;;
21697;SDS011;11010;49.548;11.926;2022-09-16T09:57:09;6.33;;;1.60;;
21697;SDS011;11010;49.548;11.926;2022-09-16T09:59:48;5.73;;;1.47;;
21697;SDS011;11010;49.548;11.926;2022-09-16T10:02:21;5.17;;;1.10;;
21697;SDS011;11010;49.548;11.926;2022-09-16T10:04:49;5.13;;;1.30;;
21697;SDS011;11010;49.548;11.926;2022-09-16T10:07:18;6.10;;;1.43;;
21697;SDS011;11010;49.548;11.926;2022-09-16T10:12:53;5.67;;;1.40;;
21697;SDS011;11010;49.548;11.926;2022-09-16T10:15:28;6.30;;;1.50;;
21697;SDS011;11010;49.548;11.926;2022-09-16T10:17:58;4.90;;;1.20;;
21697;SDS011;11010;49.548;11.926;2022-09-16T10:20:30;3.93;;;1.00;;
21697;SDS011;11010;49.548;11.926;2022-09-16T10:23:01;7.77;;;1.30;;
21697;SDS011;11010;49.548;11.926;2022-09-16T10:25:31;5.43;;;1.27;;
21697;SDS011;11010;49.548;11.926;2022-09-16T10:28:00;5.97;;;1.20;;
21697;SDS011;11010;49.548;11.926;2022-09-16T10:30:30;5.60;;;1.30;;
21697;SDS011;11010;49.548;11.926;2022-09-16T10:33:45;7.53;;;1.40;;
21697;SDS011;11010;49.548;11.926;2022-09-16T10:35:55;5.87;;;1.30;;
21697;SDS011;11010;49.548;11.926;2022-09-16T10:38:40;6.53;;;1.20;;
21697;SDS011;11010;49.548;11.926;2022-09-16T10:41:15;6.27;;;1.33;;
21697;SDS011;11010;49.548;11.926;2022-09-16T10:43:45;5.77;;;1.23;;
21697;SDS011;11010;49.548;11.926;2022-09-16T10:46:15;5.57;;;1.30;;
21697;SDS011;11010;49.548;11.926;2022-09-16T10:48:45;3.78;;;1.00;;
21697;SDS011;11010;49.548;11.926;2022-09-16T10:51:24;5.03;;;1.13;;
21697;SDS011;11010;49.548;11.926;2022-09-16T10:53:54;4.67;;;1.13;;
21697;SDS011;11010;49.548;11.926;2022-09-16T10:56:31;3.57;;;0.90;;
21697;SDS011;11010;49.548;11.926;2022-09-16T10:59:09;5.37;;;1.20;;
21697;SDS011;11010;49.548;11.926;2022-09-16T11:01:48;7.53;;;1.30;;
21697;SDS011;11010;49.548;11.926;2022-09-16T11:07:23;5.63;;;1.27;;
21697;SDS011;11010;49.548;11.926;2022-09-16T11:10:01;5.85;;;1.10;;
21697;SDS011;11010;49.548;11.926;2022-09-16T11:12:43;6.78;;;1.13;;
21697;SDS011;11010;49.548;11.926;2022-09-16T11:15:27;6.10;;;1.40;;
21697;SDS011;11010;49.548;11.926;2022-09-16T11:25:46;6.63;;;1.40;;
21697;SDS011;11010;49.548;11.926;2022-09-16T11:28:26;6.95;;;1.23;;
21697;SDS011;11010;49.548;11.926;2022-09-16T11:33:31;5.63;;;1.05;;
21697;SDS011;11010;49.548;11.926;2022-09-16T11:36:09;4.00;;;1.08;;
21697;SDS011;11010;49.548;11.926;2022-09-16T11:41:18;5.32;;;1.23;;
21697;SDS011;11010;49.548;11.926;2022-09-16T11:44:09;7.25;;;1.25;;
21697;SDS011;11010;49.548;11.926;2022-09-16T11:47:03;5.50;;;1.20;;
21697;SDS011;11010;49.548;11.926;2022-09-16T11:54:42;6.97;;;1.23;;
21697;SDS011;11010;49.548;11.926;2022-09-16T11:57:14;4.35;;;1.10;;
21697;SDS011;11010;49.548;11.926;2022-09-16T11:59:57;5.47;;;1.05;;
21697;SDS011;11010;49.548;11.926;2022-09-16T12:05:33;4.68;;;1.10;;
21697;SDS011;11010;49.548;11.926;2022-09-16T12:10:42;4.75;;;1.15;;
21697;SDS011;11010;49.548;11.926;2022-09-16T12:15:56;5.65;;;1.30;;
21697;SDS011;11010;49.548;11.926;2022-09-16T12:18:30;4.72;;;1.13;;
21697;SDS011;11010;49.548;11.926;2022-09-16T12:23:41;5.47;;;1.00;;
21697;SDS011;11010;49.548;11.926;2022-09-16T12:26:21;4.95;;;1.20;;
21697;SDS011;11010;49.548;11.926;2022-09-16T12:29:10;4.53;;;1.00;;
21697;SDS011;11010;49.548;11.926;2022-09-16T12:34:25;7.35;;;1.35;;
21697;SDS011;11010;49.548;11.926;2022-09-16T12:39:35;6.85;;;1.45;;
21697;SDS011;11010;49.548;11.926;2022-09-16T12:47:40;5.28;;;1.10;;
21697;SDS011;11010;49.548;11.926;2022-09-16T13:01:05;8.45;;;1.73;;
21697;SDS011;11010;49.548;11.926;2022-09-16T13:03:38;4.60;;;1.10;;
21697;SDS011;11010;49.548;11.926;2022-09-16T13:06:26;5.10;;;1.33;;
21697;SDS011;11010;49.548;11.926;2022-09-16T13:08:56;5.88;;;1.10;;
21697;SDS011;11010;49.548;11.926;2022-09-16T13:11:28;9.38;;;1.50;;
21697;SDS011;11010;49.548;11.926;2022-09-16T13:14:21;5.28;;;1.40;;
21697;SDS011;11010;49.548;11.926;2022-09-16T13:16:51;6.25;;;1.30;;
21697;SDS011;11010;49.548;11.926;2022-09-16T13:21:54;6.07;;;1.33;;
21697;SDS011;11010;49.548;11.926;2022-09-16T13:24:35;7.25;;;1.70;;
21697;SDS011;11010;49.548;11.926;2022-09-16T13:27:25;5.57;;;1.42;;
21697;SDS011;11010;49.548;11.926;2022-09-16T13:32:39;8.27;;;1.70;;
21697;SDS011;11010;49.548;11.926;2022-09-16T13:37:46;6.03;;;1.48;;
21697;SDS011;11010;49.548;11.926;2022-09-16T13:40:23;6.57;;;1.40;;
21697;SDS011;11010;49.548;11.926;2022-09-16T13:43:54;6.57;;;1.40;;
21697;SDS011;11010;49.548;11.926;2022-09-16T13:45:59;7.35;;;1.55;;
21697;SDS011;11010;49.548;11.926;2022-09-16T13:48:28;7.18;;;1.52;;
21697;SDS011;11010;49.548;11.926;2022-09-16T13:51:00;6.20;;;1.30;;
21697;SDS011;11010;49.548;11.926;2022-09-16T13:53:36;5.60;;;1.40;;
21697;SDS011;11010;49.548;11.926;2022-09-16T14:01:37;8.27;;;1.60;;
21697;SDS011;11010;49.548;11.926;2022-09-16T14:09:39;6.60;;;1.45;;
21697;SDS011;11010;49.548;11.926;2022-09-16T14:14:42;7.28;;;1.40;;
21697;SDS011;11010;49.548;11.926;2022-09-16T14:17:24;4.88;;;1.30;;
21697;SDS011;11010;49.548;11.926;2022-09-16T14:19:57;6.22;;;1.48;;
21697;SDS011;11010;49.548;11.926;2022-09-16T14:22:25;5.78;;;1.30;;
21697;SDS011;11010;49.548;11.926;2022-09-16T14:24:54;6.47;;;1.70;;
21697;SDS011;11010;49.548;11.926;2022-09-16T14:27:42;5.95;;;1.27;;
21697;SDS011;11010;49.548;11.926;2022-09-16T14:30:17;7.45;;;1.40;;
21697;SDS011;11010;49.548;11.926;2022-09-16T14:32:46;7.20;;;1.52;;
21697;SDS011;11010;49.548;11.926;2022-09-16T14:35:19;6.15;;;1.50;;
21697;SDS011;11010;49.548;11.926;2022-09-16T14:37:49;7.18;;;1.38;;
21697;SDS011;11010;49.548;11.926;2022-09-16T14:40:19;4.43;;;1.20;;
21697;SDS011;11010;49.548;11.926;2022-09-16T14:45:20;7.38;;;1.50;;
21697;SDS011;11010;49.548;11.926;2022-09-16T14:47:51;5.63;;;1.50;;
21697;SDS011;11010;49.548;11.926;2022-09-16T14:50:22;5.90;;;1.30;;
21697;SDS011;11010;49.548;11.926;2022-09-16T14:52:58;6.40;;;1.40;;
21697;SDS011;11010;49.548;11.926;2022-09-16T14:55:28;7.28;;;1.40;;
21697;SDS011;11010;49.548;11.926;2022-09-16T14:57:57;6.60;;;1.52;;
21697;SDS011;11010;49.548;11.926;2022-09-16T15:00:32;6.45;;;1.42;;
21697;SDS011;11010;49.548;11.926;2022-09-16T15:03:15;5.95;;;1.40;;
21697;SDS011;11010;49.548;11.926;2022-09-16T15:05:45;3.88;;;1.15;;
21697;SDS011;11010;49.548;11.926;2022-09-16T15:08:21;5.53;;;1.30;;
21697;SDS011;11010;49.548;11.926;2022-09-16T15:10:52;7.95;;;1.40;;
21697;SDS011;11010;49.548;11.926;2022-09-16T15:13:21;4.85;;;1.30;;
21697;SDS011;11010;49.548;11.926;2022-09-16T15:15:52;6.95;;;1.50;;
21697;SDS011;11010;49.548;11.926;2022-09-16T15:18:23;5.28;;;1.27;;
21697;SDS011;11010;49.548;11.926;2022-09-16T15:21:36;5.63;;;1.30;;
21697;SDS011;11010;49.548;11.926;2022-09-16T15:23:46;8.35;;;1.70;;
21697;SDS011;11010;49.548;11.926;2022-09-16T15:26:16;5.97;;;1.52;;
21697;SDS011;11010;49.548;11.926;2022-09-16T15:29:01;6.55;;;1.60;;
21697;SDS011;11010;49.548;11.926;2022-09-16T15:31:33;6.88;;;1.50;;
21697;SDS011;11010;49.548;11.926;2022-09-16T15:36:57;8.40;;;1.70;;
21697;SDS011;11010;49.548;11.926;2022-09-16T15:39:32;6.38;;;1.60;;
21697;SDS011;11010;49.548;11.926;2022-09-16T15:42:21;6.47;;;1.48;;
21697;SDS011;11010;49.548;11.926;2022-09-16T15:44:52;5.78;;;1.60;;
21697;SDS011;11010;49.548;11.926;2022-09-16T15:47:22;7.32;;;1.50;;
21697;SDS011;11010;49.548;11.926;2022-09-16T15:49:53;6.05;;;1.40;;
21697;SDS011;11010;49.548;11.926;2022-09-16T15:52:22;6.47;;;1.67;;
21697;SDS011;11010;49.548;11.926;2022-09-16T15:54:55;6.22;;;1.70;;
21697;SDS011;11010;49.548;11.926;2022-09-16T15:57:31;6.68;;;1.48;;
21697;SDS011;11010;49.548;11.926;2022-09-16T16:00:03;7.38;;;1.38;;
21697;SDS011;11010;49.548;11.926;2022-09-16T16:02:54;5.68;;;1.35;;
21697;SDS011;11010;49.548;11.926;2022-09-16T16:05:24;6.95;;;1.50;;
21697;SDS011;11010;49.548;11.926;2022-09-16T16:07:56;8.45;;;1.50;;
21697;SDS011;11010;49.548;11.926;2022-09-16T16:10:26;6.78;;;1.60;;
21697;SDS011;11010;49.548;11.926;2022-09-16T16:12:57;6.50;;;1.40;;
21697;SDS011;11010;49.548;11.926;2022-09-16T16:15:27;5.72;;;1.50;;
21697;SDS011;11010;49.548;11.926;2022-09-16T16:17:58;6.97;;;1.45;;
21697;SDS011;11010;49.548;11.926;2022-09-16T16:20:27;6.28;;;1.60;;
21697;SDS011;11010;49.548;11.926;2022-09-16T16:22:56;5.55;;;1.50;;
21697;SDS011;11010;49.548;11.926;2022-09-16T16:25:24;7.70;;;1.70;;
21697;SDS011;11010;49.548;11.926;2022-09-16T16:27:52;8.15;;;1.50;;
21697;SDS011;11010;49.548;11.926;2022-09-16T16:30:23;5.65;;;1.60;;
21697;SDS011;11010;49.548;11.926;2022-09-16T16:32:51;7.15;;;1.23;;
21697;SDS011;11010;49.548;11.926;2022-09-16T16:35:19;5.60;;;1.50;;
21697;SDS011;11010;49.548;11.926;2022-09-16T16:37:47;5.50;;;1.35;;
21697;SDS011;11010;49.548;11.926;2022-09-16T16:40:16;7.35;;;1.40;;
21697;SDS011;11010;49.548;11.926;2022-09-16T16:42:44;6.57;;;1.42;;
21697;SDS011;11010;49.548;11.926;2022-09-16T16:45:12;6.40;;;1.58;;
21697;SDS011;11010;49.548;11.926;2022-09-16T16:47:41;5.90;;;1.52;;
21697;SDS011;11010;49.548;11.926;2022-09-16T16:50:10;5.80;;;1.40;;
21697;SDS011;11010;49.548;11.926;2022-09-16T16:52:38;5.82;;;1.40;;
21697;SDS011;11010;49.548;11.926;2022-09-16T16:55:07;6.07;;;1.50;;
21697;SDS011;11010;49.548;11.926;2022-09-16T16:57:35;7.18;;;1.60;;
21697;SDS011;11010;49.548;11.926;2022-09-16T17:00:03;6.65;;;1.60;;
21697;SDS011;11010;49.548;11.926;2022-09-16T17:02:32;8.15;;;1.73;;
21697;SDS011;11010;49.548;11.926;2022-09-16T17:05:00;5.88;;;1.50;;
21697;SDS011;11010;49.548;11.926;2022-09-16T17:07:29;6.78;;;1.50;;
21697;SDS011;11010;49.548;11.926;2022-09-16T17:09:57;6.38;;;1.50;;
21697;SDS011;11010;49.548;11.926;2022-09-16T17:12:25;6.35;;;1.40;;
21697;SDS011;11010;49.548;11.926;2022-09-16T17:14:53;5.43;;;1.33;;
21697;SDS011;11010;49.548;11.926;2022-09-16T17:17:21;8.15;;;2.05;;
21697;SDS011;11010;49.548;11.926;2022-09-16T17:19:56;5.38;;;1.58;;
21697;SDS011;11010;49.548;11.926;2022-09-16T17:22:24;6.60;;;1.58;;
21697;SDS011;11010;49.548;11.926;2022-09-16T17:24:52;6.70;;;1.83;;
21697;SDS011;11010;49.548;11.926;2022-09-16T17:27:20;8.82;;;1.73;;
21697;SDS011;11010;49.548;11.926;2022-09-16T17:29:50;6.60;;;1.60;;
21697;SDS011;11010;49.548;11.926;2022-09-16T17:32:18;5.70;;;1.50;;
21697;SDS011;11010;49.548;11.926;2022-09-16T17:34:46;5.78;;;1.60;;
21697;SDS011;11010;49.548;11.926;2022-09-16T17:37:15;6.77;;;1.60;;
21697;SDS011;11010;49.548;11.926;2022-09-16T17:39:45;9.63;;;2.20;;
21697;SDS011;11010;49.548;11.926;2022-09-16T17:42:15;6.60;;;1.83;;
21697;SDS011;11010;49.548;11.926;2022-09-16T17:44:43;6.47;;;1.63;;
21697;SDS011;11010;49.548;11.926;2022-09-16T17:47:11;6.95;;;1.50;;
21697;SDS011;11010;49.548;11.926;2022-09-16T17:49:39;6.83;;;1.70;;
21697;SDS011;11010;49.548;11.926;2022-09-16T17:52:07;5.93;;;1.87;;